Total volume
$1,925
$20 in 24h
Trades
211
Unique wallets
150
Liquidity
$7,695
Latest YES mid
52¢
Latest NO mid
48¢
End date
2026-05-08
First seen
2026-05-08
last 05-08 15:52
Cohort breakdown
who's buying — by wallet tier SMI: +10.4¢ (top1%: 50% YES on $787 vs crowd: 40% YES on $1.7K)
By volume tier
Tier Wallets YES buy NO buy Net bias
🐬 Dolphin 5 $417 $140 +$277
🐟 Fish 22 $63 $369 $306
🦐 Shrimp 123 $186 $500 $313
By P&L percentile
Tier Wallets YES buy NO buy Net bias
🎯 Top 1% 16 $395 $392 +$3
🏆 Top 5% 29 $84 $308 $225
✅ Top 10% 12 $16 $37 $21
Median 15 $25 $11 +$14
Below median 21 $21 $16 +$4
⚠️ Bottom 10% 17 $20 $32 $12
🔻 Bottom 5% 13 $48 $180 $132
💀 Bottom 1% 2 $33 +$33
unranked 25 $25 $32 $7
Wallet Side Net shares Cost basis Volume Trades Last activity
Monstrous-Dew 0x5b63…11a4 Up +720 $367 $367 1 05-08 15:52
Far-Gavel 0x684e…55d2 Down +192 $85 $85 1 05-08 15:52
Little-Fraction 0xcfb1…f694 Down +179 $107 $107 1 05-08 15:52
Alive-Supermarket 0x927f…d215 Down +159 $81 $81 3 05-08 15:52
Discrete-Veterinarian 0x9e1b…3903 Down +120 $69 $69 6 05-08 15:52
Trustworthy-Fries 0x8247…503e Down +100 $50 $50 1 05-08 15:52
Upset-Sight 0xe022…6603 Down +80 $43 $43 4 05-08 15:52
(anonymous) 0xe907…cff6 Up +75 $33 $33 2 05-08 15:52
Spicy-Dancer 0xa6bb…8515 Down +69 $30 $30 3 05-08 15:52
Generous-Revenue 0x77cd…8018 Up +67 $40 $40 4 05-08 15:52
Popular-Insurrection 0xeebd…ba30 Down +65 $32 $32 3 05-08 15:52
Aromatic-Freedom 0xc547…7b30 Down +56 $30 $30 2 05-08 15:52
Cumbersome-Altitude-Mystery 0x2c69…6ad0 Up +52 $31 $31 2 05-08 15:52
Joyful-Algorithm 0xf16a…f999 Down +51 $34 $34 1 05-08 15:52
Coarse-Nonsense 0x8231…c02e Down +50 $20 $20 1 05-08 15:52
Watchful-Tapioca 0x041c…3056 Down +46 $23 $23 1 05-08 15:47
Likable-Sail 0x542a…0312 Down +41 $18 $18 1 05-08 15:52
Outlandish-Dragon-Curler 0x218f…17bc Down +40 $19 $19 2 05-08 15:52
Slight-Goodnight 0x6088…f361 Down +40 $18 $18 1 05-08 15:52
Sentimental-Differential 0x510a…d77f Down +40 $22 $22 4 05-08 15:52
Rash-Alternative 0xf353…6685 Down +30 $14 $14 1 05-08 15:52
Ancient-Mineral 0xf0de…3c33 Down +30 $12 $12 2 05-08 15:52
Complicated-Luncheonette 0x03b7…299c Down +30 $16 $16 6 05-08 15:52
Enchanting-Donor 0xe357…b709 Down +30 $15 $15 1 05-08 15:52
Agile-Spacing 0xce25…7fdc Up +29 $17 $17 1 05-08 15:52
Deadly-Prostrate 0xec22…d456 Down +22 $13 $13 3 05-08 15:52
Impressive-Buck 0xbd05…0a55 Up +21 $12 $12 1 05-08 15:52
Elastic-Meridian 0x3c03…00cc Down +21 $12 $12 2 05-08 15:52
Courageous-Dimple 0x3b01…5da3 Up +21 $11 $11 2 05-08 15:52
Incomplete-Town 0x5158…7df4 Up +20 $7 $7 1 05-08 15:52
Novel-Morbid 0x4766…5a03 Down +20 $9 $9 1 05-08 15:52
Giving-Republic 0x6ddc…9e29 Down +20 $13 $13 1 05-08 15:52
(anonymous) 0xd406…7e60 Down +20 $13 $13 1 05-08 15:52
Impressive-Buck 0xbd05…0a55 Down +18 $9 $9 1 05-08 15:52
Questionable-Miter 0x7b55…8f95 Down +18 $9 $9 2 05-08 15:52
Half-Message 0x195f…4bd5 Up +17 $10 $10 1 05-08 15:52
Velvety-Tin 0xd6a3…d24b Down +17 $9 $9 1 05-08 15:52
Scratchy-Anise 0x9657…6074 Down +17 $10 $10 2 05-08 15:52
Angelic-Ranger 0x1597…3550 Down +16 $10 $10 2 05-08 15:52
Key-Giant 0xbeb6…714a Up +15 $8 $8 1 05-08 15:52
Slim-Locker 0xdf06…f4c4 Up +14 $8 $8 1 05-08 15:52
Edible-Orient 0xcfec…a3f1 Up +12 $7 $7 1 05-08 15:52
Blushing-Attempt 0xfe2e…afe9 Up +11 $5 $5 1 05-08 15:52
Attached-Dancer 0xaffc…ce04 Up +10 $5 $5 2 05-08 15:52
Showy-Meander 0x63cc…cecd Up +10 $4 $4 1 05-08 15:52
Gloomy-Spur 0x5ce3…4a62 Up +10 $6 $6 1 05-08 15:52
(anonymous) 0xe951…4a27 Up +10 $5 $5 1 05-08 15:52
Black-Dream 0xeff1…a25c Up +10 $3 $3 1 05-08 15:52
Poor-Malice 0x5cdb…3af7 Up +9 $5 $5 1 05-08 15:52
Feline-Tune 0x97ba…6783 Up +9 $4 $4 1 05-08 15:52
Thunderous-Tab 0xda03…96b4 Up +9 $3 $3 2 05-08 15:52
Far-Gavel 0x684e…55d2 Up +9 $5 $5 1 05-08 15:52
(anonymous) 0x0db5…feb4 Up +9 $5 $5 1 05-08 15:52
Nice-Prejudice 0xfb0f…0b02 Up +8 $5 $5 1 05-08 15:52
Warm-Tabletop 0x12e5…e3cd Up +7 $3 $3 1 05-08 15:52
Disastrous-Dock 0x007a…bacc Up +7 $4 $4 1 05-08 15:52
Upbeat-Necktie 0x48ea…3e30 Up +6 $4 $4 1 05-08 15:52
Slimy-Fun 0xa30c…1b30 Up +6 $3 $3 1 05-08 15:52